createdAt,value
2022-08-26T00:01:03.678Z,31.09
2022-08-26T00:03:32.290Z,30.57
2022-08-26T00:06:00.348Z,30.98
2022-08-26T00:08:28.036Z,31.33
2022-08-26T00:10:55.963Z,31.30
2022-08-26T00:13:27.457Z,31.12
2022-08-26T00:15:55.091Z,31.07
2022-08-26T00:18:23.353Z,31.18
2022-08-26T00:20:53.519Z,30.91
2022-08-26T00:23:24.269Z,31.43
2022-08-26T00:25:52.087Z,30.80
2022-08-26T00:28:20.186Z,31.23
2022-08-26T00:30:49.390Z,31.45
2022-08-26T00:33:20.319Z,31.42
2022-08-26T00:35:47.750Z,31.14
2022-08-26T00:38:15.331Z,31.34
2022-08-26T00:40:47.414Z,31.05
2022-08-26T00:43:16.157Z,31.37
2022-08-26T00:45:47.735Z,30.99
2022-08-26T00:48:16.352Z,31.42
2022-08-26T00:50:46.705Z,31.08
2022-08-26T00:53:24.073Z,31.42
2022-08-26T00:56:01.122Z,31.63
2022-08-26T00:58:29.306Z,31.45
2022-08-26T01:00:58.628Z,31.75
2022-08-26T01:03:26.399Z,31.60
2022-08-26T01:05:55.379Z,31.72
2022-08-26T01:08:23.772Z,31.84
2022-08-26T01:10:52.509Z,32.01
2022-08-26T01:13:23.308Z,32.00
2022-08-26T01:15:52.661Z,31.54
2022-08-26T01:18:21.635Z,32.08
2022-08-26T01:21:00.084Z,32.08
2022-08-26T01:23:28.403Z,32.04
2022-08-26T01:25:56.967Z,32.02
2022-08-26T01:28:25.941Z,31.95
2022-08-26T01:30:53.597Z,32.22
2022-08-26T01:33:23.854Z,32.35
2022-08-26T01:35:51.590Z,32.58
2022-08-26T01:38:19.060Z,31.82
2022-08-26T01:40:47.210Z,31.96
2022-08-26T01:43:17.324Z,32.05
2022-08-26T01:45:45.389Z,31.97
2022-08-26T01:48:14.724Z,32.02
2022-08-26T01:50:43.406Z,32.33
2022-08-26T01:53:11.602Z,32.66
2022-08-26T01:55:40.072Z,32.57
2022-08-26T01:58:08.717Z,33.18
2022-08-26T02:00:36.229Z,33.04
2022-08-26T02:03:17.072Z,33.52
2022-08-26T02:05:44.827Z,33.11
2022-08-26T02:08:19.023Z,33.30
2022-08-26T02:10:54.817Z,33.60
2022-08-26T02:13:23.289Z,33.73
2022-08-26T02:15:52.357Z,33.89
2022-08-26T02:18:20.145Z,33.64
2022-08-26T02:20:51.518Z,33.82
2022-08-26T02:23:20.090Z,33.84
2022-08-26T02:26:03.535Z,33.60
2022-08-26T02:28:32.100Z,34.03
2022-08-26T02:30:59.524Z,34.33
2022-08-26T02:33:29.800Z,34.47
2022-08-26T02:35:57.949Z,35.06
2022-08-26T02:38:26.250Z,35.42
2022-08-26T02:40:53.680Z,34.75
2022-08-26T02:43:31.367Z,35.04
2022-08-26T02:46:02.131Z,34.62
2022-08-26T02:48:30.261Z,34.92
2022-08-26T02:51:01.928Z,34.77
2022-08-26T02:53:31.852Z,34.56
2022-08-26T02:55:59.900Z,34.37
2022-08-26T02:58:27.475Z,34.47
2022-08-26T03:00:54.898Z,34.40
2022-08-26T03:03:23.681Z,34.41
2022-08-26T03:05:51.789Z,34.39
2022-08-26T03:08:19.150Z,34.22
2022-08-26T03:10:48.036Z,34.08
2022-08-26T03:13:17.068Z,34.01
2022-08-26T03:15:44.808Z,34.01
2022-08-26T03:18:15.230Z,34.14
2022-08-26T03:20:42.604Z,34.28
2022-08-26T03:23:11.567Z,34.64
2022-08-26T03:25:40.295Z,34.73
2022-08-26T03:28:07.850Z,34.51
2022-08-26T03:30:45.026Z,34.57
2022-08-26T03:33:13.215Z,34.56
2022-08-26T03:35:41.869Z,34.97
2022-08-26T03:38:09.397Z,34.64
2022-08-26T03:40:37.268Z,35.12
2022-08-26T03:43:05.020Z,35.08
2022-08-26T03:45:33.440Z,35.19
2022-08-26T03:48:00.883Z,35.05
2022-08-26T03:50:29.556Z,35.01
2022-08-26T03:53:02.114Z,35.07
2022-08-26T03:55:32.152Z,35.35
2022-08-26T03:57:59.703Z,35.02
2022-08-26T04:00:27.198Z,35.10
2022-08-26T04:02:55.476Z,34.85
2022-08-26T04:05:23.552Z,35.06
2022-08-26T04:07:51.774Z,35.02
2022-08-26T04:10:20.343Z,35.26
2022-08-26T04:12:48.458Z,35.62
2022-08-26T04:15:16.256Z,35.67
2022-08-26T04:17:45.487Z,35.47
2022-08-26T04:20:14.150Z,35.68
2022-08-26T04:22:44.246Z,35.27
2022-08-26T04:25:11.988Z,35.79
2022-08-26T04:27:39.359Z,35.85
2022-08-26T04:30:09.096Z,35.55
2022-08-26T04:32:37.630Z,35.75
2022-08-26T04:35:06.185Z,35.46
2022-08-26T04:37:33.700Z,35.52
2022-08-26T04:40:01.158Z,35.52
2022-08-26T04:42:29.997Z,35.51
2022-08-26T04:44:57.352Z,35.68
2022-08-26T04:47:27.167Z,35.58
2022-08-26T04:50:00.195Z,35.35
2022-08-26T04:52:29.667Z,35.21
2022-08-26T04:54:58.455Z,35.04
2022-08-26T04:57:25.905Z,35.30
2022-08-26T04:59:53.864Z,35.80
2022-08-26T05:02:21.355Z,35.50
2022-08-26T05:04:49.700Z,34.88
2022-08-26T05:07:19.438Z,35.11
2022-08-26T05:09:46.947Z,35.84
2022-08-26T05:12:14.756Z,35.73
2022-08-26T05:14:43.986Z,35.07
2022-08-26T05:17:14.957Z,34.92
2022-08-26T05:19:42.953Z,34.93
2022-08-26T05:22:10.759Z,34.85
2022-08-26T05:24:41.334Z,34.94
2022-08-26T05:27:11.627Z,34.67
2022-08-26T05:29:40.260Z,34.63
2022-08-26T05:32:07.697Z,35.04
2022-08-26T05:34:35.160Z,34.96
2022-08-26T05:37:02.644Z,34.89
2022-08-26T05:39:34.439Z,34.59
2022-08-26T05:42:02.385Z,34.52
2022-08-26T05:44:30.104Z,34.50
2022-08-26T05:47:17.552Z,34.19
2022-08-26T05:49:51.436Z,34.38
2022-08-26T05:52:19.442Z,33.96
2022-08-26T05:54:47.653Z,33.95
2022-08-26T05:57:15.353Z,33.68
2022-08-26T05:59:42.924Z,33.18
2022-08-26T06:02:10.373Z,32.59
2022-08-26T06:04:39.284Z,32.94
2022-08-26T06:07:07.326Z,33.17
2022-08-26T06:09:38.985Z,33.49
2022-08-26T06:12:06.929Z,33.64
2022-08-26T06:14:35.723Z,32.89
2022-08-26T06:17:03.144Z,33.29
2022-08-26T06:19:33.091Z,32.92
2022-08-26T06:22:23.728Z,32.43
2022-08-26T06:25:09.905Z,31.54
2022-08-26T06:27:37.621Z,31.74
2022-08-26T06:30:05.879Z,30.82
2022-08-26T06:32:34.140Z,30.21
2022-08-26T06:35:01.656Z,29.29
2022-08-26T06:37:29.228Z,29.94
2022-08-26T06:39:57.014Z,29.58
2022-08-26T06:42:25.178Z,29.41
2022-08-26T06:44:52.677Z,29.07
2022-08-26T06:47:20.717Z,29.12
2022-08-26T06:49:54.065Z,29.46
2022-08-26T06:52:24.471Z,29.75
2022-08-26T06:54:52.332Z,29.18
2022-08-26T06:57:20.574Z,29.30
2022-08-26T06:59:51.216Z,29.16
2022-08-26T07:02:19.659Z,29.00
2022-08-26T07:04:48.224Z,28.98
2022-08-26T07:07:18.794Z,28.70
2022-08-26T07:09:49.607Z,26.28
2022-08-26T07:12:20.556Z,25.37
2022-08-26T07:14:48.611Z,25.44
2022-08-26T07:17:16.529Z,25.22
2022-08-26T07:19:44.582Z,25.31
2022-08-26T07:22:13.272Z,25.89
2022-08-26T07:24:42.546Z,25.09
2022-08-26T07:27:12.082Z,25.03
2022-08-26T07:29:39.648Z,25.79
2022-08-26T07:32:07.963Z,25.58
2022-08-26T07:34:37.872Z,25.11
2022-08-26T07:37:08.681Z,24.81
2022-08-26T07:39:36.712Z,24.73
2022-08-26T07:42:08.049Z,24.30
2022-08-26T07:44:37.282Z,24.83
2022-08-26T07:47:19.375Z,24.77
2022-08-26T07:49:54.300Z,24.59
2022-08-26T07:52:26.212Z,24.48
2022-08-26T07:54:55.744Z,24.79
2022-08-26T07:57:24.322Z,25.08
2022-08-26T07:59:54.057Z,24.58
2022-08-26T08:02:23.095Z,24.67
2022-08-26T08:04:51.908Z,24.83
2022-08-26T08:07:19.364Z,24.86
2022-08-26T08:09:49.685Z,24.92
2022-08-26T08:12:17.822Z,24.85
2022-08-26T08:14:46.904Z,24.80
2022-08-26T08:17:16.048Z,24.58
2022-08-26T08:19:43.819Z,23.54
2022-08-26T08:22:17.471Z,23.66
2022-08-26T08:24:49.931Z,22.70
2022-08-26T08:27:23.790Z,22.80
2022-08-26T08:29:55.019Z,22.72
2022-08-26T08:32:22.857Z,22.90
2022-08-26T08:34:50.401Z,22.98
2022-08-26T08:37:17.921Z,22.82
2022-08-26T08:39:45.571Z,22.99
2022-08-26T08:42:28.000Z,23.00
2022-08-26T08:44:59.362Z,23.30
2022-08-26T08:47:34.326Z,22.88
2022-08-26T08:50:24.674Z,23.01
2022-08-26T08:52:56.903Z,22.92
2022-08-26T08:55:30.041Z,22.89
2022-08-26T09:01:37.006Z,22.82
2022-08-26T09:04:04.619Z,22.60
2022-08-26T09:06:32.495Z,22.59
2022-08-26T09:09:01.350Z,22.24
2022-08-26T09:11:28.854Z,22.55
2022-08-26T09:13:56.448Z,22.26
2022-08-26T09:16:42.685Z,22.72
2022-08-26T09:19:37.206Z,22.74
2022-08-26T09:22:09.404Z,22.58
2022-08-26T09:24:42.012Z,22.53
2022-08-26T09:27:35.655Z,22.37
2022-08-26T09:30:05.678Z,22.84
2022-08-26T09:32:35.256Z,22.60
2022-08-26T09:35:21.333Z,22.21
2022-08-26T09:40:35.101Z,22.54
2022-08-26T09:43:11.956Z,22.70
2022-08-26T09:45:40.255Z,22.22
2022-08-26T09:48:07.934Z,22.23
2022-08-26T09:50:38.057Z,21.98
2022-08-26T09:53:12.967Z,22.24
2022-08-26T09:55:42.114Z,22.17
2022-08-26T09:58:12.963Z,22.20
2022-08-26T10:00:56.850Z,22.17
2022-08-26T10:03:26.317Z,22.21
2022-08-26T10:05:58.544Z,22.33
2022-08-26T10:08:28.211Z,21.79
2022-08-26T10:10:56.985Z,21.73
2022-08-26T10:13:35.029Z,21.86
2022-08-26T10:16:10.766Z,22.03
2022-08-26T10:18:42.741Z,21.97
2022-08-26T10:21:18.015Z,22.23
2022-08-26T10:23:47.373Z,22.86
2022-08-26T10:26:21.182Z,22.29
2022-08-26T10:28:50.228Z,22.77
2022-08-26T10:31:40.247Z,22.67
2022-08-26T10:34:08.693Z,22.98
2022-08-26T10:37:13.962Z,22.52
2022-08-26T10:39:44.949Z,22.92
2022-08-26T10:42:16.298Z,23.02
2022-08-26T10:44:44.412Z,23.09
2022-08-26T10:47:16.952Z,22.91
2022-08-26T10:49:46.549Z,23.11
2022-08-26T10:52:16.735Z,23.29
2022-08-26T10:54:46.444Z,22.99
2022-08-26T10:57:16.020Z,23.19
2022-08-26T11:00:22.469Z,23.58
2022-08-26T11:02:50.557Z,23.89
2022-08-26T11:05:23.558Z,24.00
2022-08-26T11:07:54.974Z,24.60
2022-08-26T11:10:25.546Z,24.62
2022-08-26T11:13:03.944Z,25.06
2022-08-26T11:15:32.084Z,24.03
2022-08-26T11:18:01.854Z,24.16
2022-08-26T11:20:41.843Z,23.98
2022-08-26T11:23:13.142Z,23.96
2022-08-26T11:26:10.087Z,24.47
2022-08-26T11:28:52.002Z,24.77
2022-08-26T11:31:19.668Z,25.00
2022-08-26T11:33:51.451Z,24.57
2022-08-26T11:36:28.122Z,24.68
2022-08-26T11:38:55.977Z,24.82
2022-08-26T11:41:29.257Z,24.59
2022-08-26T11:43:57.107Z,24.47
2022-08-26T11:46:26.214Z,24.80
2022-08-26T11:49:01.158Z,24.76
2022-08-26T11:51:31.899Z,25.00
2022-08-26T11:54:15.992Z,24.54
2022-08-26T11:56:44.531Z,24.43
2022-08-26T11:59:12.271Z,24.88
2022-08-26T12:01:43.732Z,24.67
2022-08-26T12:04:12.913Z,24.49
2022-08-26T12:06:45.849Z,24.77
2022-08-26T12:09:23.767Z,24.54
2022-08-26T12:11:51.551Z,25.04
2022-08-26T12:14:20.835Z,24.77
2022-08-26T12:16:48.497Z,24.82
2022-08-26T12:19:29.022Z,24.83
2022-08-26T12:22:05.224Z,24.69
2022-08-26T12:24:33.080Z,24.95
2022-08-26T12:27:16.004Z,24.83
2022-08-26T12:29:43.612Z,25.06
2022-08-26T12:32:17.876Z,25.33
2022-08-26T12:34:45.720Z,26.87
2022-08-26T12:37:13.740Z,28.13
2022-08-26T12:39:43.488Z,28.25
2022-08-26T12:42:16.936Z,28.99
2022-08-26T12:45:00.812Z,29.33
2022-08-26T12:47:41.773Z,29.12
2022-08-26T12:50:19.728Z,29.69
2022-08-26T12:53:04.369Z,29.53
2022-08-26T12:55:31.944Z,29.35
2022-08-26T12:58:18.134Z,29.33
2022-08-26T13:00:45.947Z,29.64
2022-08-26T13:03:32.787Z,29.94
2022-08-26T13:06:19.195Z,29.38
2022-08-26T13:08:53.063Z,29.24
2022-08-26T13:11:21.858Z,29.60
2022-08-26T13:13:53.413Z,29.60
2022-08-26T13:16:21.463Z,29.80
2022-08-26T13:18:49.834Z,29.99
2022-08-26T13:21:18.467Z,29.83
2022-08-26T13:23:46.763Z,29.81
2022-08-26T13:26:14.421Z,29.68
2022-08-26T13:28:42.628Z,29.52
2022-08-26T13:31:10.772Z,29.93
2022-08-26T13:33:38.658Z,29.91
2022-08-26T13:36:07.362Z,30.17
2022-08-26T13:38:34.936Z,29.77
2022-08-26T13:41:04.290Z,30.28
2022-08-26T13:43:32.148Z,30.46
2022-08-26T13:46:01.719Z,30.57
2022-08-26T13:48:29.466Z,30.64
2022-08-26T13:50:57.393Z,30.49
2022-08-26T13:53:24.994Z,30.22
2022-08-26T13:55:52.709Z,30.66
2022-08-26T13:58:20.798Z,30.41
2022-08-26T14:00:51.223Z,30.51
2022-08-26T14:03:18.991Z,30.92
2022-08-26T14:05:47.164Z,27.68
2022-08-26T14:08:14.804Z,26.55
2022-08-26T14:10:44.171Z,26.52
2022-08-26T14:13:11.848Z,26.52
2022-08-26T14:15:39.711Z,25.86
2022-08-26T14:18:07.880Z,26.26
2022-08-26T14:20:39.741Z,26.37
2022-08-26T14:23:14.694Z,26.28
2022-08-26T14:25:42.813Z,28.29
2022-08-26T14:28:10.425Z,29.15
2022-08-26T14:30:39.596Z,30.28
2022-08-26T14:33:07.193Z,30.86
2022-08-26T14:35:34.831Z,31.40
2022-08-26T14:38:02.622Z,31.81
2022-08-26T14:40:30.712Z,32.31
2022-08-26T14:42:58.904Z,31.82
2022-08-26T14:45:27.514Z,32.03
2022-08-26T14:47:56.779Z,32.01
2022-08-26T14:50:24.777Z,30.91
2022-08-26T14:53:11.073Z,28.84
2022-08-26T14:55:40.851Z,28.11
2022-08-26T14:58:09.967Z,27.53
2022-08-26T15:00:38.774Z,27.04
2022-08-26T15:03:06.658Z,27.47
2022-08-26T15:05:34.889Z,27.56
2022-08-26T15:08:04.807Z,27.37
2022-08-26T15:10:34.084Z,27.56
2022-08-26T15:13:02.270Z,27.42
2022-08-26T15:15:29.989Z,27.54
2022-08-26T15:17:57.953Z,27.39
2022-08-26T15:20:25.580Z,27.46
2022-08-26T15:22:53.722Z,27.63
2022-08-26T15:25:21.623Z,27.80
2022-08-26T15:27:49.243Z,27.39
2022-08-26T15:30:17.034Z,27.68
2022-08-26T15:32:44.950Z,27.89
2022-08-26T15:35:12.656Z,27.89
2022-08-26T15:37:40.464Z,28.11
2022-08-26T15:40:09.806Z,28.31
2022-08-26T15:42:37.431Z,28.19
2022-08-26T15:45:05.096Z,28.49
2022-08-26T15:47:32.768Z,28.86
2022-08-26T15:50:15.998Z,28.79
2022-08-26T15:52:43.604Z,28.56
2022-08-26T15:55:11.278Z,28.40
2022-08-26T15:57:39.352Z,28.52
2022-08-26T16:00:10.168Z,28.62
2022-08-26T16:02:40.266Z,28.49
2022-08-26T16:05:08.170Z,28.86
2022-08-26T16:07:36.512Z,28.85
2022-08-26T16:10:04.286Z,28.95
2022-08-26T16:12:32.296Z,28.88
2022-08-26T16:14:59.770Z,29.12
2022-08-26T16:17:27.836Z,29.17
2022-08-26T16:19:56.473Z,29.52
2022-08-26T16:22:24.656Z,29.89
2022-08-26T16:24:57.162Z,29.55
2022-08-26T16:27:24.865Z,29.45
2022-08-26T16:29:52.665Z,30.03
2022-08-26T16:32:20.188Z,29.99
2022-08-26T16:34:56.203Z,29.72
2022-08-26T16:37:24.791Z,29.55
2022-08-26T16:39:54.905Z,29.54
2022-08-26T16:42:22.561Z,31.22
2022-08-26T16:44:51.411Z,32.20
2022-08-26T16:47:19.031Z,33.41
2022-08-26T16:49:47.209Z,34.39
2022-08-26T16:52:14.771Z,34.78
2022-08-26T16:54:43.936Z,34.84
2022-08-26T16:57:12.427Z,35.15
2022-08-26T16:59:40.140Z,35.08
2022-08-26T17:02:07.917Z,35.38
2022-08-26T17:04:37.517Z,36.33
2022-08-26T17:07:05.321Z,35.41
2022-08-26T17:09:32.894Z,35.41
2022-08-26T17:12:01.631Z,36.38
2022-08-26T17:14:29.977Z,36.24
2022-08-26T17:16:57.608Z,36.58
2022-08-26T17:19:25.506Z,36.15
2022-08-26T17:21:53.400Z,36.28
2022-08-26T17:24:20.901Z,36.38
2022-08-26T17:26:53.555Z,36.14
2022-08-26T17:29:23.293Z,36.65
2022-08-26T17:31:50.908Z,36.17
2022-08-26T17:34:18.402Z,36.80
2022-08-26T17:36:45.860Z,36.42
2022-08-26T17:39:13.329Z,35.95
2022-08-26T17:41:40.849Z,36.43
2022-08-26T17:44:08.416Z,36.26
2022-08-26T17:46:38.515Z,36.02
2022-08-26T17:49:06.457Z,35.48
2022-08-26T17:51:34.158Z,35.94
2022-08-26T17:54:01.553Z,35.81
2022-08-26T17:56:29.287Z,36.57
2022-08-26T17:58:57.804Z,36.09
2022-08-26T18:01:30.184Z,36.28
2022-08-26T18:04:00.446Z,36.65
2022-08-26T18:06:28.953Z,36.65
2022-08-26T18:08:56.406Z,36.26
2022-08-26T18:11:24.601Z,37.59
2022-08-26T18:13:52.247Z,37.08
2022-08-26T18:16:20.032Z,36.48
2022-08-26T18:18:47.738Z,36.77
2022-08-26T18:21:16.470Z,37.63
2022-08-26T18:23:44.432Z,37.10
2022-08-26T18:26:18.049Z,36.98
2022-08-26T18:28:45.547Z,37.30
2022-08-26T18:31:13.008Z,37.47
2022-08-26T18:33:40.828Z,37.11
2022-08-26T18:36:08.203Z,37.18
2022-08-26T18:38:36.013Z,36.56
2022-08-26T18:41:04.821Z,36.82
2022-08-26T18:43:32.822Z,36.71
2022-08-26T18:46:06.797Z,36.73
2022-08-26T18:48:34.588Z,36.70
2022-08-26T18:51:02.333Z,36.70
2022-08-26T18:53:30.196Z,37.14
2022-08-26T18:55:57.885Z,36.92
2022-08-26T18:58:25.718Z,37.41
2022-08-26T19:00:53.398Z,37.00
2022-08-26T19:03:20.814Z,37.34
2022-08-26T19:05:49.210Z,37.64
2022-08-26T19:08:17.318Z,37.39
2022-08-26T19:10:45.403Z,37.51
2022-08-26T19:13:14.720Z,37.82
2022-08-26T19:15:44.143Z,37.66
2022-08-26T19:18:12.182Z,37.99
2022-08-26T19:20:43.567Z,37.54
2022-08-26T19:23:30.311Z,37.90
2022-08-26T19:25:58.720Z,38.59
2022-08-26T19:28:26.180Z,38.41
2022-08-26T19:30:53.826Z,38.87
2022-08-26T19:33:21.383Z,39.61
2022-08-26T19:35:48.793Z,39.52
2022-08-26T19:38:17.717Z,40.09
2022-08-26T19:40:45.105Z,40.15
2022-08-26T19:43:12.552Z,39.94
2022-08-26T19:45:40.329Z,40.16
2022-08-26T19:48:07.872Z,39.89
2022-08-26T19:50:35.553Z,40.33
2022-08-26T19:53:07.547Z,40.68
2022-08-26T19:55:35.226Z,40.36
2022-08-26T19:58:02.811Z,40.69
2022-08-26T20:00:32.002Z,41.16
2022-08-26T20:02:59.820Z,41.52
2022-08-26T20:05:27.579Z,41.33
2022-08-26T20:07:55.541Z,40.67
2022-08-26T20:10:23.309Z,40.60
2022-08-26T20:12:52.474Z,40.71
2022-08-26T20:15:20.634Z,40.71
2022-08-26T20:17:48.153Z,40.64
2022-08-26T20:20:35.342Z,41.08
2022-08-26T20:23:03.857Z,40.72
2022-08-26T20:25:32.802Z,40.98
2022-08-26T20:28:01.284Z,40.62
2022-08-26T20:30:29.094Z,40.91
2022-08-26T20:32:57.219Z,41.28
2022-08-26T20:35:24.736Z,41.97
2022-08-26T20:37:52.338Z,41.83
2022-08-26T20:40:21.719Z,41.50
2022-08-26T20:42:49.489Z,41.79
2022-08-26T20:45:17.176Z,41.83
2022-08-26T20:47:45.462Z,41.87
2022-08-26T20:50:12.945Z,41.52
2022-08-26T20:52:40.745Z,41.92
2022-08-26T20:55:08.520Z,42.18
2022-08-26T20:57:38.001Z,41.95
2022-08-26T21:00:05.907Z,42.09
2022-08-26T21:02:34.343Z,42.06
2022-08-26T21:05:01.967Z,42.23
2022-08-26T21:07:30.414Z,42.14
2022-08-26T21:09:58.304Z,42.31
2022-08-26T21:12:27.210Z,42.56
2022-08-26T21:14:55.183Z,41.60
2022-08-26T21:17:23.077Z,42.01
2022-08-26T21:19:50.619Z,41.51
2022-08-26T21:22:18.295Z,41.78
2022-08-26T21:24:46.291Z,41.48
2022-08-26T21:27:13.983Z,41.85
2022-08-26T21:29:49.078Z,41.03
2022-08-26T21:32:19.671Z,40.46
2022-08-26T21:34:47.179Z,40.34
2022-08-26T21:37:16.339Z,40.43
2022-08-26T21:39:44.527Z,40.52
2022-08-26T21:42:12.015Z,40.68
2022-08-26T21:44:39.946Z,40.36
2022-08-26T21:47:07.578Z,39.91
2022-08-26T21:49:36.171Z,39.47
2022-08-26T21:52:04.716Z,39.64
2022-08-26T21:54:32.509Z,39.84
2022-08-26T21:57:00.175Z,39.79
2022-08-26T21:59:27.700Z,40.18
2022-08-26T22:01:55.254Z,39.57
2022-08-26T22:04:22.909Z,39.38
2022-08-26T22:06:51.216Z,38.19
2022-08-26T22:09:19.654Z,38.66
2022-08-26T22:11:47.563Z,38.45
2022-08-26T22:14:15.249Z,37.96
2022-08-26T22:16:44.471Z,37.60
2022-08-26T22:19:20.334Z,37.32
2022-08-26T22:21:51.521Z,36.72
2022-08-26T22:24:19.318Z,36.93
2022-08-26T22:26:46.960Z,36.69
2022-08-26T22:29:14.876Z,36.75
2022-08-26T22:31:42.482Z,37.07
2022-08-26T22:34:11.494Z,37.11
2022-08-26T22:36:43.634Z,37.16
2022-08-26T22:39:12.499Z,36.98
2022-08-26T22:41:40.660Z,36.83
2022-08-26T22:44:08.161Z,36.64
2022-08-26T22:46:36.982Z,36.25
2022-08-26T22:49:07.195Z,35.90
2022-08-26T22:51:34.804Z,35.69
2022-08-26T22:54:02.274Z,35.19
2022-08-26T22:56:30.216Z,35.47
2022-08-26T22:58:57.800Z,35.04
2022-08-26T23:01:25.511Z,34.93
2022-08-26T23:03:53.740Z,34.72
2022-08-26T23:06:21.450Z,34.41
2022-08-26T23:08:49.557Z,34.34
2022-08-26T23:11:19.585Z,34.03
2022-08-26T23:13:47.432Z,33.96
2022-08-26T23:16:14.942Z,34.06
2022-08-26T23:18:42.639Z,34.30
2022-08-26T23:21:10.831Z,33.83
2022-08-26T23:23:38.646Z,34.37
2022-08-26T23:26:06.476Z,34.32
2022-08-26T23:28:37.392Z,34.33
2022-08-26T23:31:05.084Z,34.15
2022-08-26T23:33:51.350Z,34.05
2022-08-26T23:36:22.828Z,33.83
2022-08-26T23:38:52.767Z,34.09
2022-08-26T23:41:24.370Z,33.37
2022-08-26T23:43:52.040Z,33.32
2022-08-26T23:46:19.730Z,33.71
2022-08-26T23:48:47.319Z,33.90
2022-08-26T23:51:33.405Z,34.23
2022-08-26T23:54:00.894Z,34.63
2022-08-26T23:56:29.283Z,34.74
2022-08-26T23:58:56.883Z,34.30
